sensor_id;sensor_type;location;lat;lon;timestamp;P1;durP1;ratioP1;P2;durP2;ratioP2
44270;SDS011;29963;44.594;11.368;2023-05-10T00:02:06;7.35;;;6.28;;
44270;SDS011;29963;44.594;11.368;2023-05-10T00:04:31;8.77;;;6.50;;
44270;SDS011;29963;44.594;11.368;2023-05-10T00:06:57;6.50;;;5.90;;
44270;SDS011;29963;44.594;11.368;2023-05-10T00:09:23;6.75;;;5.82;;
44270;SDS011;29963;44.594;11.368;2023-05-10T00:11:48;8.13;;;6.15;;
44270;SDS011;29963;44.594;11.368;2023-05-10T00:14:14;7.47;;;5.95;;
44270;SDS011;29963;44.594;11.368;2023-05-10T00:16:40;7.82;;;6.13;;
44270;SDS011;29963;44.594;11.368;2023-05-10T00:19:06;6.55;;;5.90;;
44270;SDS011;29963;44.594;11.368;2023-05-10T00:21:31;6.05;;;4.75;;
44270;SDS011;29963;44.594;11.368;2023-05-10T00:23:58;6.13;;;5.57;;
44270;SDS011;29963;44.594;11.368;2023-05-10T00:26:24;6.78;;;6.07;;
44270;SDS011;29963;44.594;11.368;2023-05-10T00:28:50;5.95;;;4.57;;
44270;SDS011;29963;44.594;11.368;2023-05-10T00:31:16;6.90;;;4.93;;
44270;SDS011;29963;44.594;11.368;2023-05-10T00:33:41;5.72;;;5.13;;
44270;SDS011;29963;44.594;11.368;2023-05-10T00:36:07;6.40;;;5.13;;
44270;SDS011;29963;44.594;11.368;2023-05-10T00:38:34;5.57;;;5.05;;
44270;SDS011;29963;44.594;11.368;2023-05-10T00:41:00;11.88;;;5.68;;
44270;SDS011;29963;44.594;11.368;2023-05-10T00:43:26;7.53;;;4.68;;
44270;SDS011;29963;44.594;11.368;2023-05-10T00:45:51;8.23;;;4.97;;
44270;SDS011;29963;44.594;11.368;2023-05-10T00:48:18;5.45;;;3.45;;
44270;SDS011;29963;44.594;11.368;2023-05-10T00:50:43;4.22;;;3.83;;
44270;SDS011;29963;44.594;11.368;2023-05-10T00:53:10;5.38;;;4.28;;
44270;SDS011;29963;44.594;11.368;2023-05-10T00:55:36;4.53;;;4.13;;
44270;SDS011;29963;44.594;11.368;2023-05-10T00:58:02;4.22;;;3.83;;
44270;SDS011;29963;44.594;11.368;2023-05-10T01:00:28;5.10;;;4.20;;
44270;SDS011;29963;44.594;11.368;2023-05-10T01:02:54;8.15;;;4.60;;
44270;SDS011;29963;44.594;11.368;2023-05-10T01:05:20;4.05;;;3.67;;
44270;SDS011;29963;44.594;11.368;2023-05-10T01:07:46;5.07;;;3.83;;
44270;SDS011;29963;44.594;11.368;2023-05-10T01:10:12;6.93;;;4.35;;
44270;SDS011;29963;44.594;11.368;2023-05-10T01:12:39;5.05;;;4.15;;
44270;SDS011;29963;44.594;11.368;2023-05-10T01:15:07;6.78;;;4.03;;
44270;SDS011;29963;44.594;11.368;2023-05-10T01:17:38;5.13;;;4.53;;
44270;SDS011;29963;44.594;11.368;2023-05-10T01:20:05;6.28;;;4.82;;
44270;SDS011;29963;44.594;11.368;2023-05-10T01:33:26;4.38;;;3.97;;
44270;SDS011;29963;44.594;11.368;2023-05-10T01:36:08;4.25;;;3.85;;
44270;SDS011;29963;44.594;11.368;2023-05-10T01:39:20;4.53;;;4.10;;
44270;SDS011;29963;44.594;11.368;2023-05-10T01:44:29;4.70;;;3.97;;
44270;SDS011;29963;44.594;11.368;2023-05-10T01:49:44;4.93;;;4.30;;
44270;SDS011;29963;44.594;11.368;2023-05-10T01:52:14;6.30;;;4.15;;
44270;SDS011;29963;44.594;11.368;2023-05-10T01:54:53;4.40;;;4.00;;
44270;SDS011;29963;44.594;11.368;2023-05-10T01:57:24;4.95;;;3.72;;
44270;SDS011;29963;44.594;11.368;2023-05-10T01:59:52;4.70;;;3.80;;
44270;SDS011;29963;44.594;11.368;2023-05-10T02:02:20;4.53;;;3.50;;
44270;SDS011;29963;44.594;11.368;2023-05-10T02:04:47;4.70;;;3.58;;
44270;SDS011;29963;44.594;11.368;2023-05-10T02:07:15;6.43;;;3.95;;
44270;SDS011;29963;44.594;11.368;2023-05-10T02:10:00;5.70;;;4.00;;
44270;SDS011;29963;44.594;11.368;2023-05-10T02:12:28;4.47;;;3.78;;
44270;SDS011;29963;44.594;11.368;2023-05-10T02:14:55;5.13;;;3.63;;
44270;SDS011;29963;44.594;11.368;2023-05-10T02:17:22;4.20;;;3.80;;
44270;SDS011;29963;44.594;11.368;2023-05-10T02:19:49;4.30;;;3.90;;
44270;SDS011;29963;44.594;11.368;2023-05-10T02:22:17;6.03;;;4.32;;
44270;SDS011;29963;44.594;11.368;2023-05-10T02:24:43;5.82;;;4.18;;
44270;SDS011;29963;44.594;11.368;2023-05-10T02:27:10;5.22;;;3.65;;
44270;SDS011;29963;44.594;11.368;2023-05-10T02:29:37;5.75;;;4.18;;
44270;SDS011;29963;44.594;11.368;2023-05-10T02:32:03;6.05;;;4.53;;
44270;SDS011;29963;44.594;11.368;2023-05-10T02:34:29;8.15;;;4.55;;
44270;SDS011;29963;44.594;11.368;2023-05-10T02:36:56;4.38;;;3.95;;
44270;SDS011;29963;44.594;11.368;2023-05-10T02:39:22;7.93;;;4.53;;
44270;SDS011;29963;44.594;11.368;2023-05-10T02:41:50;4.82;;;4.38;;
44270;SDS011;29963;44.594;11.368;2023-05-10T02:44:19;5.03;;;4.43;;
44270;SDS011;29963;44.594;11.368;2023-05-10T02:46:47;9.40;;;5.25;;
44270;SDS011;29963;44.594;11.368;2023-05-10T02:49:13;6.03;;;5.43;;
44270;SDS011;29963;44.594;11.368;2023-05-10T02:51:43;7.07;;;5.22;;
44270;SDS011;29963;44.594;11.368;2023-05-10T02:54:16;7.05;;;5.32;;
44270;SDS011;29963;44.594;11.368;2023-05-10T02:56:50;5.72;;;5.10;;
44270;SDS011;29963;44.594;11.368;2023-05-10T02:59:20;5.90;;;5.30;;
44270;SDS011;29963;44.594;11.368;2023-05-10T03:01:45;5.22;;;4.72;;
44270;SDS011;29963;44.594;11.368;2023-05-10T03:04:11;5.70;;;5.10;;
44270;SDS011;29963;44.594;11.368;2023-05-10T03:06:36;6.38;;;5.78;;
44270;SDS011;29963;44.594;11.368;2023-05-10T03:09:02;8.30;;;5.78;;
44270;SDS011;29963;44.594;11.368;2023-05-10T03:17:15;8.50;;;5.30;;
44270;SDS011;29963;44.594;11.368;2023-05-10T03:19:53;6.90;;;5.70;;
44270;SDS011;29963;44.594;11.368;2023-05-10T03:22:27;4.85;;;4.35;;
44270;SDS011;29963;44.594;11.368;2023-05-10T03:24:57;6.75;;;5.40;;
44270;SDS011;29963;44.594;11.368;2023-05-10T03:27:26;5.80;;;5.15;;
44270;SDS011;29963;44.594;11.368;2023-05-10T03:29:53;5.85;;;5.20;;
44270;SDS011;29963;44.594;11.368;2023-05-10T03:32:19;6.30;;;5.13;;
44270;SDS011;29963;44.594;11.368;2023-05-10T03:34:45;4.63;;;3.72;;
44270;SDS011;29963;44.594;11.368;2023-05-10T03:37:11;8.75;;;4.82;;
44270;SDS011;29963;44.594;11.368;2023-05-10T03:39:36;5.72;;;3.90;;
44270;SDS011;29963;44.594;11.368;2023-05-10T03:42:02;6.30;;;4.10;;
44270;SDS011;29963;44.594;11.368;2023-05-10T03:44:27;7.47;;;4.82;;
44270;SDS011;29963;44.594;11.368;2023-05-10T03:46:53;5.60;;;4.47;;
44270;SDS011;29963;44.594;11.368;2023-05-10T03:49:19;5.13;;;3.92;;
44270;SDS011;29963;44.594;11.368;2023-05-10T03:51:44;5.05;;;4.63;;
44270;SDS011;29963;44.594;11.368;2023-05-10T03:54:10;4.93;;;4.28;;
44270;SDS011;29963;44.594;11.368;2023-05-10T03:56:35;5.40;;;3.95;;
44270;SDS011;29963;44.594;11.368;2023-05-10T03:59:01;4.28;;;3.60;;
44270;SDS011;29963;44.594;11.368;2023-05-10T04:01:32;4.93;;;3.72;;
44270;SDS011;29963;44.594;11.368;2023-05-10T04:03:58;5.68;;;4.95;;
44270;SDS011;29963;44.594;11.368;2023-05-10T04:06:24;4.45;;;4.05;;
44270;SDS011;29963;44.594;11.368;2023-05-10T04:08:49;4.63;;;3.67;;
44270;SDS011;29963;44.594;11.368;2023-05-10T04:11:15;6.68;;;4.00;;
44270;SDS011;29963;44.594;11.368;2023-05-10T04:13:40;5.93;;;3.53;;
44270;SDS011;29963;44.594;11.368;2023-05-10T04:16:06;4.65;;;3.78;;
44270;SDS011;29963;44.594;11.368;2023-05-10T04:18:31;5.20;;;4.47;;
44270;SDS011;29963;44.594;11.368;2023-05-10T04:20:57;4.07;;;3.67;;
44270;SDS011;29963;44.594;11.368;2023-05-10T04:23:23;3.72;;;3.38;;
44270;SDS011;29963;44.594;11.368;2023-05-10T04:25:48;4.95;;;3.53;;
44270;SDS011;29963;44.594;11.368;2023-05-10T04:28:14;5.15;;;3.28;;
44270;SDS011;29963;44.594;11.368;2023-05-10T04:30:39;4.07;;;3.42;;
44270;SDS011;29963;44.594;11.368;2023-05-10T04:33:05;5.28;;;3.50;;
44270;SDS011;29963;44.594;11.368;2023-05-10T04:35:31;5.25;;;3.28;;
44270;SDS011;29963;44.594;11.368;2023-05-10T04:37:56;3.55;;;3.22;;
44270;SDS011;29963;44.594;11.368;2023-05-10T04:40:22;3.92;;;3.55;;
44270;SDS011;29963;44.594;11.368;2023-05-10T04:42:48;3.67;;;3.38;;
44270;SDS011;29963;44.594;11.368;2023-05-10T04:45:13;4.57;;;3.50;;
44270;SDS011;29963;44.594;11.368;2023-05-10T04:47:42;4.63;;;3.78;;
44270;SDS011;29963;44.594;11.368;2023-05-10T04:50:08;3.40;;;3.10;;
44270;SDS011;29963;44.594;11.368;2023-05-10T04:52:33;4.10;;;3.70;;
44270;SDS011;29963;44.594;11.368;2023-05-10T04:54:59;4.70;;;3.75;;
44270;SDS011;29963;44.594;11.368;2023-05-10T04:57:25;4.32;;;3.60;;
44270;SDS011;29963;44.594;11.368;2023-05-10T04:59:50;3.58;;;3.28;;
44270;SDS011;29963;44.594;11.368;2023-05-10T05:02:17;4.72;;;3.72;;
44270;SDS011;29963;44.594;11.368;2023-05-10T05:04:42;4.28;;;3.63;;
44270;SDS011;29963;44.594;11.368;2023-05-10T05:07:08;5.32;;;3.35;;
44270;SDS011;29963;44.594;11.368;2023-05-10T05:09:33;5.13;;;3.95;;
44270;SDS011;29963;44.594;11.368;2023-05-10T05:11:59;12.20;;;4.10;;
44270;SDS011;29963;44.594;11.368;2023-05-10T05:14:25;4.65;;;4.25;;
44270;SDS011;29963;44.594;11.368;2023-05-10T05:16:53;4.93;;;3.67;;
44270;SDS011;29963;44.594;11.368;2023-05-10T05:19:19;4.75;;;3.72;;
44270;SDS011;29963;44.594;11.368;2023-05-10T05:21:44;5.60;;;3.78;;
44270;SDS011;29963;44.594;11.368;2023-05-10T05:24:10;5.57;;;3.70;;
44270;SDS011;29963;44.594;11.368;2023-05-10T05:26:37;3.83;;;3.50;;
44270;SDS011;29963;44.594;11.368;2023-05-10T05:29:03;4.68;;;3.50;;
44270;SDS011;29963;44.594;11.368;2023-05-10T05:31:29;4.90;;;4.10;;
44270;SDS011;29963;44.594;11.368;2023-05-10T05:33:54;4.50;;;3.72;;
44270;SDS011;29963;44.594;11.368;2023-05-10T05:36:20;4.47;;;4.05;;
44270;SDS011;29963;44.594;11.368;2023-05-10T05:38:46;4.55;;;4.13;;
44270;SDS011;29963;44.594;11.368;2023-05-10T05:41:11;5.32;;;4.25;;
44270;SDS011;29963;44.594;11.368;2023-05-10T05:43:37;5.82;;;3.50;;
44270;SDS011;29963;44.594;11.368;2023-05-10T05:46:03;5.20;;;3.95;;
44270;SDS011;29963;44.594;11.368;2023-05-10T05:48:29;5.55;;;3.85;;
44270;SDS011;29963;44.594;11.368;2023-05-10T05:50:55;7.72;;;3.80;;
44270;SDS011;29963;44.594;11.368;2023-05-10T05:53:22;7.13;;;4.43;;
44270;SDS011;29963;44.594;11.368;2023-05-10T05:55:54;4.95;;;3.40;;
44270;SDS011;29963;44.594;11.368;2023-05-10T05:58:22;6.75;;;4.22;;
44270;SDS011;29963;44.594;11.368;2023-05-10T06:00:48;6.70;;;4.40;;
44270;SDS011;29963;44.594;11.368;2023-05-10T06:03:14;4.43;;;3.47;;
44270;SDS011;29963;44.594;11.368;2023-05-10T06:05:40;4.85;;;3.40;;
44270;SDS011;29963;44.594;11.368;2023-05-10T06:08:06;4.78;;;4.00;;
44270;SDS011;29963;44.594;11.368;2023-05-10T06:10:31;5.43;;;4.13;;
44270;SDS011;29963;44.594;11.368;2023-05-10T06:12:57;5.53;;;3.97;;
44270;SDS011;29963;44.594;11.368;2023-05-10T06:15:22;5.78;;;4.20;;
44270;SDS011;29963;44.594;11.368;2023-05-10T06:17:48;5.28;;;4.32;;
44270;SDS011;29963;44.594;11.368;2023-05-10T06:20:14;5.25;;;4.03;;
44270;SDS011;29963;44.594;11.368;2023-05-10T06:22:40;7.95;;;4.97;;
44270;SDS011;29963;44.594;11.368;2023-05-10T06:25:06;9.07;;;4.55;;
44270;SDS011;29963;44.594;11.368;2023-05-10T06:27:32;3.95;;;3.65;;
44270;SDS011;29963;44.594;11.368;2023-05-10T06:29:58;5.15;;;4.65;;
44270;SDS011;29963;44.594;11.368;2023-05-10T06:32:24;5.07;;;3.42;;
44270;SDS011;29963;44.594;11.368;2023-05-10T06:34:49;5.68;;;3.80;;
44270;SDS011;29963;44.594;11.368;2023-05-10T06:37:15;3.85;;;3.55;;
44270;SDS011;29963;44.594;11.368;2023-05-10T06:39:41;4.13;;;3.72;;
44270;SDS011;29963;44.594;11.368;2023-05-10T06:42:07;4.60;;;4.13;;
44270;SDS011;29963;44.594;11.368;2023-05-10T06:44:33;6.47;;;4.03;;
44270;SDS011;29963;44.594;11.368;2023-05-10T06:46:58;6.30;;;4.15;;
44270;SDS011;29963;44.594;11.368;2023-05-10T06:49:24;4.30;;;3.90;;
44270;SDS011;29963;44.594;11.368;2023-05-10T06:51:49;5.18;;;4.60;;
44270;SDS011;29963;44.594;11.368;2023-05-10T06:54:15;5.90;;;3.60;;
44270;SDS011;29963;44.594;11.368;2023-05-10T06:56:40;6.00;;;4.28;;
44270;SDS011;29963;44.594;11.368;2023-05-10T06:59:06;4.13;;;3.47;;
44270;SDS011;29963;44.594;11.368;2023-05-10T07:01:32;5.20;;;4.20;;
44270;SDS011;29963;44.594;11.368;2023-05-10T07:03:58;4.95;;;3.70;;
44270;SDS011;29963;44.594;11.368;2023-05-10T07:06:23;6.22;;;4.60;;
44270;SDS011;29963;44.594;11.368;2023-05-10T07:08:49;5.43;;;4.22;;
44270;SDS011;29963;44.594;11.368;2023-05-10T07:11:14;4.55;;;3.65;;
44270;SDS011;29963;44.594;11.368;2023-05-10T07:13:40;6.05;;;4.03;;
44270;SDS011;29963;44.594;11.368;2023-05-10T07:16:09;6.20;;;2.88;;
44270;SDS011;29963;44.594;11.368;2023-05-10T07:18:35;4.85;;;3.40;;
44270;SDS011;29963;44.594;11.368;2023-05-10T07:21:01;5.82;;;4.13;;
44270;SDS011;29963;44.594;11.368;2023-05-10T07:23:26;3.50;;;3.20;;
44270;SDS011;29963;44.594;11.368;2023-05-10T07:25:52;4.70;;;3.92;;
44270;SDS011;29963;44.594;11.368;2023-05-10T07:28:18;3.90;;;3.60;;
44270;SDS011;29963;44.594;11.368;2023-05-10T07:30:44;4.90;;;3.38;;
44270;SDS011;29963;44.594;11.368;2023-05-10T07:33:12;3.95;;;3.55;;
44270;SDS011;29963;44.594;11.368;2023-05-10T07:35:38;4.95;;;3.60;;
44270;SDS011;29963;44.594;11.368;2023-05-10T07:38:04;3.88;;;3.58;;
44270;SDS011;29963;44.594;11.368;2023-05-10T07:40:30;3.38;;;3.08;;
44270;SDS011;29963;44.594;11.368;2023-05-10T07:42:56;4.07;;;3.08;;
44270;SDS011;29963;44.594;11.368;2023-05-10T07:45:22;6.10;;;3.80;;
44270;SDS011;29963;44.594;11.368;2023-05-10T07:47:48;5.78;;;3.65;;
44270;SDS011;29963;44.594;11.368;2023-05-10T07:50:14;4.25;;;3.83;;
44270;SDS011;29963;44.594;11.368;2023-05-10T07:52:40;7.63;;;3.70;;
44270;SDS011;29963;44.594;11.368;2023-05-10T07:55:06;3.38;;;3.08;;
44270;SDS011;29963;44.594;11.368;2023-05-10T07:57:35;3.47;;;3.17;;
44270;SDS011;29963;44.594;11.368;2023-05-10T08:00:01;7.70;;;4.15;;
44270;SDS011;29963;44.594;11.368;2023-05-10T08:02:27;5.18;;;3.75;;
44270;SDS011;29963;44.594;11.368;2023-05-10T08:04:53;3.92;;;3.58;;
44270;SDS011;29963;44.594;11.368;2023-05-10T08:07:19;4.22;;;3.83;;
44270;SDS011;29963;44.594;11.368;2023-05-10T08:09:44;4.53;;;4.13;;
44270;SDS011;29963;44.594;11.368;2023-05-10T08:12:10;4.00;;;3.58;;
44270;SDS011;29963;44.594;11.368;2023-05-10T08:14:35;4.03;;;3.63;;
44270;SDS011;29963;44.594;11.368;2023-05-10T08:17:04;5.13;;;3.95;;
44270;SDS011;29963;44.594;11.368;2023-05-10T08:19:30;8.10;;;5.03;;
44270;SDS011;29963;44.594;11.368;2023-05-10T08:21:55;4.35;;;3.67;;
44270;SDS011;29963;44.594;11.368;2023-05-10T08:24:22;4.82;;;3.78;;
44270;SDS011;29963;44.594;11.368;2023-05-10T08:26:48;4.97;;;4.45;;
44270;SDS011;29963;44.594;11.368;2023-05-10T08:29:14;6.25;;;5.57;;
44270;SDS011;29963;44.594;11.368;2023-05-10T08:31:39;7.05;;;5.05;;
44270;SDS011;29963;44.594;11.368;2023-05-10T08:34:05;4.70;;;4.25;;
44270;SDS011;29963;44.594;11.368;2023-05-10T08:36:31;4.95;;;4.45;;
44270;SDS011;29963;44.594;11.368;2023-05-10T08:38:57;7.70;;;4.85;;
44270;SDS011;29963;44.594;11.368;2023-05-10T08:41:23;7.63;;;4.57;;
44270;SDS011;29963;44.594;11.368;2023-05-10T08:43:50;6.13;;;5.07;;
44270;SDS011;29963;44.594;11.368;2023-05-10T08:46:17;6.55;;;5.85;;
44270;SDS011;29963;44.594;11.368;2023-05-10T08:48:44;7.57;;;6.28;;
44270;SDS011;29963;44.594;11.368;2023-05-10T08:51:22;15.52;;;13.38;;
44270;SDS011;29963;44.594;11.368;2023-05-10T08:53:51;8.57;;;7.47;;
44270;SDS011;29963;44.594;11.368;2023-05-10T08:56:17;8.57;;;5.85;;
44270;SDS011;29963;44.594;11.368;2023-05-10T08:58:44;9.45;;;6.47;;
44270;SDS011;29963;44.594;11.368;2023-05-10T09:01:10;9.68;;;6.38;;
44270;SDS011;29963;44.594;11.368;2023-05-10T09:03:38;7.28;;;5.97;;
44270;SDS011;29963;44.594;11.368;2023-05-10T09:06:04;7.90;;;7.10;;
44270;SDS011;29963;44.594;11.368;2023-05-10T09:08:30;8.88;;;6.40;;
44270;SDS011;29963;44.594;11.368;2023-05-10T09:10:56;8.63;;;7.43;;
44270;SDS011;29963;44.594;11.368;2023-05-10T09:13:22;11.25;;;7.90;;
44270;SDS011;29963;44.594;11.368;2023-05-10T09:15:49;9.75;;;7.80;;
44270;SDS011;29963;44.594;11.368;2023-05-10T09:18:16;7.05;;;5.78;;
44270;SDS011;29963;44.594;11.368;2023-05-10T09:20:42;6.30;;;5.70;;
44270;SDS011;29963;44.594;11.368;2023-05-10T09:23:07;5.82;;;5.22;;
44270;SDS011;29963;44.594;11.368;2023-05-10T09:25:33;5.82;;;5.22;;
44270;SDS011;29963;44.594;11.368;2023-05-10T09:27:59;5.93;;;5.10;;
44270;SDS011;29963;44.594;11.368;2023-05-10T09:30:28;5.47;;;4.75;;
44270;SDS011;29963;44.594;11.368;2023-05-10T09:32:55;6.72;;;4.82;;
44270;SDS011;29963;44.594;11.368;2023-05-10T09:35:25;5.20;;;4.70;;
44270;SDS011;29963;44.594;11.368;2023-05-10T09:37:52;6.07;;;5.47;;
44270;SDS011;29963;44.594;11.368;2023-05-10T09:40:20;7.63;;;5.05;;
44270;SDS011;29963;44.594;11.368;2023-05-10T09:43:00;5.97;;;5.38;;
44270;SDS011;29963;44.594;11.368;2023-05-10T09:45:30;5.47;;;4.93;;
44270;SDS011;29963;44.594;11.368;2023-05-10T09:47:57;7.05;;;5.80;;
44270;SDS011;29963;44.594;11.368;2023-05-10T09:50:24;8.52;;;4.72;;
44270;SDS011;29963;44.594;11.368;2023-05-10T09:55:20;12.98;;;8.65;;
44270;SDS011;29963;44.594;11.368;2023-05-10T09:58:05;6.00;;;5.40;;
44270;SDS011;29963;44.594;11.368;2023-05-10T10:00:38;6.03;;;5.53;;
44270;SDS011;29963;44.594;11.368;2023-05-10T10:03:05;6.22;;;5.63;;
44270;SDS011;29963;44.594;11.368;2023-05-10T10:05:36;8.73;;;5.82;;
44270;SDS011;29963;44.594;11.368;2023-05-10T10:08:06;5.72;;;4.35;;
44270;SDS011;29963;44.594;11.368;2023-05-10T10:10:32;3.38;;;3.08;;
44270;SDS011;29963;44.594;11.368;2023-05-10T10:12:59;4.30;;;3.67;;
44270;SDS011;29963;44.594;11.368;2023-05-10T10:15:25;5.38;;;4.25;;
44270;SDS011;29963;44.594;11.368;2023-05-10T10:17:51;5.18;;;4.68;;
44270;SDS011;29963;44.594;11.368;2023-05-10T10:20:18;9.23;;;5.57;;
44270;SDS011;29963;44.594;11.368;2023-05-10T10:22:45;4.88;;;4.30;;
44270;SDS011;29963;44.594;11.368;2023-05-10T10:25:11;7.28;;;5.22;;
44270;SDS011;29963;44.594;11.368;2023-05-10T10:35:31;10.32;;;5.85;;
44270;SDS011;29963;44.594;11.368;2023-05-10T10:37:58;8.52;;;5.68;;
44270;SDS011;29963;44.594;11.368;2023-05-10T10:40:24;5.45;;;4.95;;
44270;SDS011;29963;44.594;11.368;2023-05-10T10:42:51;6.45;;;5.82;;
44270;SDS011;29963;44.594;11.368;2023-05-10T10:45:18;4.93;;;4.53;;
44270;SDS011;29963;44.594;11.368;2023-05-10T10:47:45;10.95;;;6.38;;
44270;SDS011;29963;44.594;11.368;2023-05-10T10:50:10;6.00;;;5.40;;
44270;SDS011;29963;44.594;11.368;2023-05-10T10:52:44;5.70;;;5.07;;
44270;SDS011;29963;44.594;11.368;2023-05-10T10:55:14;5.63;;;5.13;;
44270;SDS011;29963;44.594;11.368;2023-05-10T10:57:47;6.30;;;5.05;;
44270;SDS011;29963;44.594;11.368;2023-05-10T11:02:59;6.72;;;5.85;;
44270;SDS011;29963;44.594;11.368;2023-05-10T11:05:51;7.25;;;6.13;;
44270;SDS011;29963;44.594;11.368;2023-05-10T11:08:30;5.72;;;4.95;;
44270;SDS011;29963;44.594;11.368;2023-05-10T11:18:54;5.30;;;4.40;;
44270;SDS011;29963;44.594;11.368;2023-05-10T11:21:19;6.18;;;4.80;;
44270;SDS011;29963;44.594;11.368;2023-05-10T11:26:15;6.00;;;4.45;;
44270;SDS011;29963;44.594;11.368;2023-05-10T11:28:47;5.38;;;4.63;;
44270;SDS011;29963;44.594;11.368;2023-05-10T11:31:14;4.85;;;4.40;;
44270;SDS011;29963;44.594;11.368;2023-05-10T11:33:48;5.88;;;5.13;;
44270;SDS011;29963;44.594;11.368;2023-05-10T11:36:16;7.18;;;4.63;;
44270;SDS011;29963;44.594;11.368;2023-05-10T11:38:46;5.07;;;4.68;;
44270;SDS011;29963;44.594;11.368;2023-05-10T11:41:13;6.45;;;4.68;;
44270;SDS011;29963;44.594;11.368;2023-05-10T11:43:40;5.28;;;4.78;;
44270;SDS011;29963;44.594;11.368;2023-05-10T11:46:06;4.75;;;4.25;;
44270;SDS011;29963;44.594;11.368;2023-05-10T11:48:33;5.15;;;4.68;;
44270;SDS011;29963;44.594;11.368;2023-05-10T11:51:00;5.38;;;4.88;;
44270;SDS011;29963;44.594;11.368;2023-05-10T11:53:27;4.20;;;3.80;;
44270;SDS011;29963;44.594;11.368;2023-05-10T11:55:54;5.45;;;3.70;;
44270;SDS011;29963;44.594;11.368;2023-05-10T11:58:19;4.32;;;3.83;;
44270;SDS011;29963;44.594;11.368;2023-05-10T12:00:46;4.00;;;3.55;;
44270;SDS011;29963;44.594;11.368;2023-05-10T12:03:13;4.07;;;3.63;;
44270;SDS011;29963;44.594;11.368;2023-05-10T12:05:38;4.65;;;4.25;;
44270;SDS011;29963;44.594;11.368;2023-05-10T12:08:16;5.97;;;3.72;;
44270;SDS011;29963;44.594;11.368;2023-05-10T12:10:46;4.00;;;3.28;;
44270;SDS011;29963;44.594;11.368;2023-05-10T12:13:12;4.88;;;3.33;;
44270;SDS011;29963;44.594;11.368;2023-05-10T12:15:39;4.20;;;3.80;;
44270;SDS011;29963;44.594;11.368;2023-05-10T12:18:05;9.30;;;3.92;;
44270;SDS011;29963;44.594;11.368;2023-05-10T12:20:33;4.45;;;4.05;;
44270;SDS011;29963;44.594;11.368;2023-05-10T12:22:58;4.28;;;3.88;;
44270;SDS011;29963;44.594;11.368;2023-05-10T12:25:30;4.30;;;3.90;;
44270;SDS011;29963;44.594;11.368;2023-05-10T12:27:58;3.95;;;3.55;;
44270;SDS011;29963;44.594;11.368;2023-05-10T12:30:28;3.67;;;3.28;;
44270;SDS011;29963;44.594;11.368;2023-05-10T12:32:59;4.50;;;4.10;;
44270;SDS011;29963;44.594;11.368;2023-05-10T12:38:34;3.53;;;3.22;;
44270;SDS011;29963;44.594;11.368;2023-05-10T12:41:03;3.42;;;3.13;;
44270;SDS011;29963;44.594;11.368;2023-05-10T12:43:33;4.90;;;4.10;;
44270;SDS011;29963;44.594;11.368;2023-05-10T12:48:36;14.13;;;3.30;;
44270;SDS011;29963;44.594;11.368;2023-05-10T12:51:03;2.92;;;2.70;;
44270;SDS011;29963;44.594;11.368;2023-05-10T12:53:29;3.42;;;3.10;;
44270;SDS011;29963;44.594;11.368;2023-05-10T12:55:55;4.32;;;3.40;;
44270;SDS011;29963;44.594;11.368;2023-05-10T12:58:21;3.15;;;2.88;;
44270;SDS011;29963;44.594;11.368;2023-05-10T13:00:47;3.10;;;2.80;;
44270;SDS011;29963;44.594;11.368;2023-05-10T13:03:12;4.00;;;3.63;;
44270;SDS011;29963;44.594;11.368;2023-05-10T13:05:38;4.18;;;3.22;;
44270;SDS011;29963;44.594;11.368;2023-05-10T13:08:04;4.05;;;3.45;;
44270;SDS011;29963;44.594;11.368;2023-05-10T13:10:30;4.22;;;3.15;;
44270;SDS011;29963;44.594;11.368;2023-05-10T13:12:56;3.63;;;3.22;;
44270;SDS011;29963;44.594;11.368;2023-05-10T13:15:23;3.40;;;3.10;;
44270;SDS011;29963;44.594;11.368;2023-05-10T13:17:49;3.38;;;3.08;;
44270;SDS011;29963;44.594;11.368;2023-05-10T13:20:14;3.78;;;3.42;;
44270;SDS011;29963;44.594;11.368;2023-05-10T13:22:41;4.20;;;3.47;;
44270;SDS011;29963;44.594;11.368;2023-05-10T13:25:08;3.50;;;3.10;;
44270;SDS011;29963;44.594;11.368;2023-05-10T13:27:34;3.60;;;3.30;;
44270;SDS011;29963;44.594;11.368;2023-05-10T13:30:00;5.60;;;3.25;;
44270;SDS011;29963;44.594;11.368;2023-05-10T13:32:28;2.88;;;2.58;;
44270;SDS011;29963;44.594;11.368;2023-05-10T13:34:54;3.13;;;2.83;;
44270;SDS011;29963;44.594;11.368;2023-05-10T13:37:20;4.18;;;3.45;;
44270;SDS011;29963;44.594;11.368;2023-05-10T13:39:46;3.38;;;3.08;;
44270;SDS011;29963;44.594;11.368;2023-05-10T13:42:12;3.38;;;3.08;;
44270;SDS011;29963;44.594;11.368;2023-05-10T13:44:37;2.63;;;2.42;;
44270;SDS011;29963;44.594;11.368;2023-05-10T13:47:03;2.72;;;2.53;;
44270;SDS011;29963;44.594;11.368;2023-05-10T13:49:29;2.80;;;2.47;;
44270;SDS011;29963;44.594;11.368;2023-05-10T13:51:55;2.90;;;2.40;;
44270;SDS011;29963;44.594;11.368;2023-05-10T13:54:21;2.30;;;2.10;;
44270;SDS011;29963;44.594;11.368;2023-05-10T13:56:47;2.60;;;2.40;;
44270;SDS011;29963;44.594;11.368;2023-05-10T13:59:13;3.08;;;2.58;;
44270;SDS011;29963;44.594;11.368;2023-05-10T14:01:39;6.32;;;3.67;;
44270;SDS011;29963;44.594;11.368;2023-05-10T14:04:05;2.40;;;2.20;;
44270;SDS011;29963;44.594;11.368;2023-05-10T14:06:32;2.90;;;2.70;;
44270;SDS011;29963;44.594;11.368;2023-05-10T14:08:58;3.03;;;2.60;;
44270;SDS011;29963;44.594;11.368;2023-05-10T14:11:23;3.08;;;2.78;;
44270;SDS011;29963;44.594;11.368;2023-05-10T14:13:49;3.35;;;2.90;;
44270;SDS011;29963;44.594;11.368;2023-05-10T14:16:15;2.53;;;2.33;;
44270;SDS011;29963;44.594;11.368;2023-05-10T14:18:40;3.17;;;2.88;;
44270;SDS011;29963;44.594;11.368;2023-05-10T14:21:06;3.97;;;2.88;;
44270;SDS011;29963;44.594;11.368;2023-05-10T14:23:32;3.05;;;2.83;;
44270;SDS011;29963;44.594;11.368;2023-05-10T14:25:57;3.30;;;3.00;;
44270;SDS011;29963;44.594;11.368;2023-05-10T14:28:23;4.00;;;3.60;;
44270;SDS011;29963;44.594;11.368;2023-05-10T14:30:49;3.63;;;3.17;;
44270;SDS011;29963;44.594;11.368;2023-05-10T14:33:16;3.72;;;2.70;;
44270;SDS011;29963;44.594;11.368;2023-05-10T14:35:42;4.45;;;3.00;;
44270;SDS011;29963;44.594;11.368;2023-05-10T14:38:07;3.65;;;3.20;;
44270;SDS011;29963;44.594;11.368;2023-05-10T14:40:33;4.05;;;3.65;;
44270;SDS011;29963;44.594;11.368;2023-05-10T14:42:59;4.30;;;3.90;;
44270;SDS011;29963;44.594;11.368;2023-05-10T14:45:25;4.05;;;3.65;;
44270;SDS011;29963;44.594;11.368;2023-05-10T14:47:51;4.60;;;3.90;;
44270;SDS011;29963;44.594;11.368;2023-05-10T14:50:17;4.82;;;4.43;;
44270;SDS011;29963;44.594;11.368;2023-05-10T14:52:43;3.25;;;2.95;;
44270;SDS011;29963;44.594;11.368;2023-05-10T14:55:09;3.63;;;3.33;;
44270;SDS011;29963;44.594;11.368;2023-05-10T14:57:34;3.85;;;3.40;;
44270;SDS011;29963;44.594;11.368;2023-05-10T15:00:00;4.03;;;3.72;;
44270;SDS011;29963;44.594;11.368;2023-05-10T15:02:27;6.00;;;4.05;;
44270;SDS011;29963;44.594;11.368;2023-05-10T15:04:53;3.97;;;3.58;;
44270;SDS011;29963;44.594;11.368;2023-05-10T15:07:18;4.88;;;4.32;;
44270;SDS011;29963;44.594;11.368;2023-05-10T15:09:44;4.35;;;3.95;;
44270;SDS011;29963;44.594;11.368;2023-05-10T15:12:10;4.93;;;4.47;;
44270;SDS011;29963;44.594;11.368;2023-05-10T15:14:36;4.15;;;3.70;;
44270;SDS011;29963;44.594;11.368;2023-05-10T15:17:01;5.70;;;4.32;;
44270;SDS011;29963;44.594;11.368;2023-05-10T15:19:27;4.63;;;4.22;;
44270;SDS011;29963;44.594;11.368;2023-05-10T15:21:54;5.32;;;4.82;;
44270;SDS011;29963;44.594;11.368;2023-05-10T15:24:20;5.93;;;5.40;;